createdAt,value
2022-11-08T00:01:37.716Z,3.40
2022-11-08T00:04:22.046Z,3.70
2022-11-08T00:07:07.500Z,4.10
2022-11-08T00:09:52.384Z,3.63
2022-11-08T00:12:37.965Z,3.75
2022-11-08T00:15:05.358Z,4.38
2022-11-08T00:17:32.415Z,3.92
2022-11-08T00:19:58.757Z,3.83
2022-11-08T00:22:25.162Z,3.83
2022-11-08T00:24:54.324Z,4.13
2022-11-08T00:27:22.786Z,3.95
2022-11-08T00:29:49.178Z,3.90
2022-11-08T00:32:17.989Z,3.55
2022-11-08T00:34:44.474Z,3.60
2022-11-08T00:37:10.929Z,3.78
2022-11-08T00:39:37.683Z,4.28
2022-11-08T00:42:04.142Z,3.60
2022-11-08T00:44:30.553Z,4.28
2022-11-08T00:46:57.305Z,3.72
2022-11-08T00:49:23.636Z,3.72
2022-11-08T00:51:50.184Z,3.83
2022-11-08T00:54:19.411Z,3.60
2022-11-08T00:56:46.321Z,3.60
2022-11-08T00:59:14.136Z,4.15
2022-11-08T01:01:41.456Z,3.92
2022-11-08T01:04:09.082Z,3.60
2022-11-08T01:06:35.720Z,4.53
2022-11-08T01:09:02.044Z,4.15
2022-11-08T01:11:28.457Z,4.10
2022-11-08T01:13:57.225Z,3.80
2022-11-08T01:16:26.231Z,4.05
2022-11-08T01:18:55.664Z,4.15
2022-11-08T01:21:22.152Z,4.25
2022-11-08T01:23:48.680Z,4.15
2022-11-08T01:26:20.558Z,4.45
2022-11-08T01:28:47.432Z,3.83
2022-11-08T01:31:16.427Z,3.90
2022-11-08T01:33:47.003Z,4.00
2022-11-08T01:36:17.748Z,3.70
2022-11-08T01:38:44.138Z,3.67
2022-11-08T01:41:14.158Z,4.10
2022-11-08T01:43:45.639Z,4.00
2022-11-08T01:46:36.782Z,3.88
2022-11-08T01:49:14.966Z,3.78
2022-11-08T01:51:50.627Z,4.03
2022-11-08T01:54:26.258Z,3.80
2022-11-08T01:56:53.266Z,3.80
2022-11-08T01:59:19.651Z,4.53
2022-11-08T02:01:46.141Z,3.97
2022-11-08T02:04:13.672Z,3.72
2022-11-08T02:06:40.440Z,4.30
2022-11-08T02:09:08.870Z,4.05
2022-11-08T02:11:35.952Z,3.90
2022-11-08T02:14:02.958Z,4.32
2022-11-08T02:16:29.282Z,4.28
2022-11-08T02:18:55.614Z,3.60
2022-11-08T02:21:48.175Z,4.22
2022-11-08T02:24:14.824Z,4.10
2022-11-08T02:26:41.378Z,4.28
2022-11-08T02:29:33.077Z,3.88
2022-11-08T02:32:00.343Z,3.80
2022-11-08T02:34:34.001Z,3.45
2022-11-08T02:37:02.137Z,3.30
2022-11-08T02:39:29.904Z,3.67
2022-11-08T02:41:56.227Z,4.35
2022-11-08T02:44:22.541Z,4.38
2022-11-08T02:46:48.903Z,4.03
2022-11-08T02:49:15.220Z,4.40
2022-11-08T02:51:41.535Z,4.20
2022-11-08T02:54:08.058Z,4.15
2022-11-08T02:56:34.400Z,3.97
2022-11-08T02:59:00.819Z,4.00
2022-11-08T03:01:27.231Z,3.65
2022-11-08T03:03:53.681Z,4.35
2022-11-08T03:06:20.036Z,4.15
2022-11-08T03:08:46.379Z,4.45
2022-11-08T03:11:12.735Z,4.88
2022-11-08T03:13:39.061Z,4.55
2022-11-08T03:16:06.147Z,4.22
2022-11-08T03:18:32.552Z,4.18
2022-11-08T03:21:00.534Z,4.45
2022-11-08T03:23:27.497Z,5.22
2022-11-08T03:25:53.864Z,4.80
2022-11-08T03:28:22.886Z,4.70
2022-11-08T03:30:51.979Z,3.95
2022-11-08T03:33:18.539Z,4.28
2022-11-08T03:35:44.905Z,4.00
2022-11-08T03:38:11.219Z,4.85
2022-11-08T03:40:37.543Z,4.63
2022-11-08T03:43:03.921Z,5.05
2022-11-08T03:45:30.265Z,4.35
2022-11-08T03:47:56.595Z,5.00
2022-11-08T03:50:22.969Z,4.35
2022-11-08T03:52:51.184Z,4.32
2022-11-08T03:55:18.794Z,4.13
2022-11-08T03:57:46.769Z,4.82
2022-11-08T04:00:15.488Z,4.95
2022-11-08T04:02:42.221Z,4.50
2022-11-08T04:05:10.359Z,5.05
2022-11-08T04:07:36.741Z,4.95
2022-11-08T04:10:04.473Z,5.25
2022-11-08T04:12:49.215Z,5.07
2022-11-08T04:15:18.792Z,5.07
2022-11-08T04:18:11.765Z,4.45
2022-11-08T04:20:58.231Z,4.47
2022-11-08T04:23:25.647Z,5.78
2022-11-08T04:25:56.473Z,4.72
2022-11-08T04:28:27.295Z,4.75
2022-11-08T04:30:58.358Z,3.97
2022-11-08T04:33:24.901Z,4.57
2022-11-08T04:35:51.874Z,5.97
2022-11-08T04:38:19.157Z,4.63
2022-11-08T04:40:45.880Z,5.43
2022-11-08T04:43:12.803Z,5.15
2022-11-08T04:45:39.503Z,5.80
2022-11-08T04:48:06.123Z,5.35
2022-11-08T04:50:32.473Z,5.93
2022-11-08T04:52:58.813Z,5.38
2022-11-08T04:55:25.125Z,5.97
2022-11-08T04:57:51.467Z,6.60
2022-11-08T05:00:18.409Z,5.72
2022-11-08T05:02:44.819Z,6.03
2022-11-08T05:05:11.228Z,5.93
2022-11-08T05:07:37.561Z,5.95
2022-11-08T05:10:04.432Z,5.55
2022-11-08T05:12:30.736Z,6.68
2022-11-08T05:14:57.065Z,6.10
2022-11-08T05:17:23.397Z,6.35
2022-11-08T05:20:08.215Z,5.97
2022-11-08T05:22:53.238Z,6.22
2022-11-08T05:25:19.570Z,6.28
2022-11-08T05:27:45.885Z,6.90
2022-11-08T05:30:12.377Z,6.88
2022-11-08T05:32:38.711Z,6.50
2022-11-08T05:35:05.499Z,6.88
2022-11-08T05:37:31.821Z,6.97
2022-11-08T05:39:58.127Z,6.50
2022-11-08T05:42:24.441Z,7.00
2022-11-08T05:44:50.774Z,7.38
2022-11-08T05:47:17.188Z,7.03
2022-11-08T05:49:43.691Z,6.95
2022-11-08T05:52:10.069Z,5.88
2022-11-08T05:54:36.393Z,7.10
2022-11-08T05:57:02.742Z,6.97
2022-11-08T05:59:29.157Z,6.90
2022-11-08T06:01:55.535Z,7.15
2022-11-08T06:04:21.874Z,7.20
2022-11-08T06:06:49.940Z,7.30
2022-11-08T06:09:16.594Z,6.30
2022-11-08T06:11:42.930Z,6.40
2022-11-08T06:14:09.318Z,7.60
2022-11-08T06:16:35.659Z,6.95
2022-11-08T06:19:01.989Z,6.03
2022-11-08T06:21:28.480Z,7.43
2022-11-08T06:23:55.114Z,6.20
2022-11-08T06:26:22.686Z,7.43
2022-11-08T06:28:48.999Z,7.07
2022-11-08T06:31:15.407Z,7.55
2022-11-08T06:33:41.747Z,7.25
2022-11-08T06:36:10.806Z,6.72
2022-11-08T06:38:37.158Z,17.88
2022-11-08T06:41:03.519Z,17.55
2022-11-08T06:43:30.032Z,14.65
2022-11-08T06:46:00.682Z,8.18
2022-11-08T06:48:30.967Z,8.10
2022-11-08T06:51:01.555Z,19.83
2022-11-08T06:53:27.884Z,20.42
2022-11-08T06:55:54.903Z,18.65
2022-11-08T06:58:21.229Z,13.00
2022-11-08T07:00:47.561Z,7.95
2022-11-08T07:03:14.487Z,6.85
2022-11-08T07:05:40.840Z,7.15
2022-11-08T07:08:07.728Z,7.28
2022-11-08T07:10:34.316Z,7.55
2022-11-08T07:13:06.461Z,10.57
2022-11-08T07:15:34.296Z,12.18
2022-11-08T07:18:09.104Z,9.55
2022-11-08T07:20:35.483Z,8.55
2022-11-08T07:23:02.011Z,7.93
2022-11-08T07:25:28.898Z,7.40
2022-11-08T07:27:59.329Z,9.95
2022-11-08T07:30:26.476Z,8.52
2022-11-08T07:32:53.197Z,7.13
2022-11-08T07:35:19.504Z,7.70
2022-11-08T07:37:45.880Z,9.80
2022-11-08T07:40:14.596Z,10.48
2022-11-08T07:43:05.159Z,8.65
2022-11-08T07:45:27.920Z,9.02
2022-11-08T07:48:11.063Z,8.35
2022-11-08T07:50:38.453Z,6.72
2022-11-08T07:53:04.831Z,6.88
2022-11-08T07:55:31.249Z,8.38
2022-11-08T07:58:01.879Z,7.47
2022-11-08T08:00:31.538Z,8.20
2022-11-08T08:03:01.337Z,6.55
2022-11-08T08:05:29.503Z,7.95
2022-11-08T08:07:59.714Z,10.60
2022-11-08T08:10:27.873Z,6.82
2022-11-08T08:12:55.099Z,6.28
2022-11-08T08:15:21.534Z,6.53
2022-11-08T08:17:47.855Z,6.10
2022-11-08T08:20:14.678Z,5.75
2022-11-08T08:22:51.131Z,6.07
2022-11-08T08:25:18.289Z,7.47
2022-11-08T08:27:48.419Z,6.65
2022-11-08T08:30:15.474Z,6.35
2022-11-08T08:32:41.981Z,8.48
2022-11-08T08:35:08.897Z,6.07
2022-11-08T08:37:35.281Z,5.18
2022-11-08T08:40:01.669Z,5.53
2022-11-08T08:42:27.987Z,5.65
2022-11-08T08:44:54.528Z,6.10
2022-11-08T08:47:20.849Z,5.53
2022-11-08T08:49:47.146Z,5.07
2022-11-08T08:52:13.482Z,5.22
2022-11-08T08:54:39.806Z,4.85
2022-11-08T08:57:06.138Z,4.25
2022-11-08T09:02:18.929Z,4.70
2022-11-08T09:04:45.245Z,4.72
2022-11-08T09:07:11.656Z,4.85
2022-11-08T09:09:38.018Z,4.47
2022-11-08T09:12:04.546Z,4.43
2022-11-08T09:14:30.890Z,4.97
2022-11-08T09:16:57.527Z,4.75
2022-11-08T09:19:23.933Z,5.65
2022-11-08T09:21:50.591Z,5.32
2022-11-08T09:24:17.434Z,5.10
2022-11-08T09:26:43.812Z,5.00
2022-11-08T09:29:10.143Z,4.70
2022-11-08T09:31:36.470Z,5.38
2022-11-08T09:36:34.256Z,4.68
2022-11-08T09:39:00.771Z,4.82
2022-11-08T09:42:00.277Z,4.68
2022-11-08T09:44:29.267Z,4.90
2022-11-08T09:46:57.430Z,5.00
2022-11-08T09:49:35.394Z,5.20
2022-11-08T09:52:03.770Z,5.00
2022-11-08T09:54:38.305Z,4.68
2022-11-08T09:57:06.220Z,5.38
2022-11-08T09:59:36.827Z,5.22
2022-11-08T10:02:03.444Z,5.25
2022-11-08T10:04:31.632Z,4.75
2022-11-08T10:07:31.836Z,4.95
2022-11-08T10:10:06.647Z,5.18
2022-11-08T10:12:45.127Z,4.88
2022-11-08T10:15:53.337Z,4.95
2022-11-08T10:18:22.369Z,4.72
2022-11-08T10:21:16.297Z,4.97
2022-11-08T10:24:09.765Z,4.57
2022-11-08T10:26:39.161Z,4.75
2022-11-08T10:29:29.669Z,5.60
2022-11-08T10:32:03.946Z,6.90
2022-11-08T10:34:36.443Z,5.72
2022-11-08T10:37:09.178Z,4.50
2022-11-08T10:39:39.217Z,4.70
2022-11-08T10:42:10.233Z,5.25
2022-11-08T10:44:36.651Z,5.05
2022-11-08T10:47:04.923Z,5.05
2022-11-08T10:49:40.032Z,4.05
2022-11-08T10:52:12.248Z,4.35
2022-11-08T10:54:50.551Z,4.65
2022-11-08T10:57:34.773Z,4.00
2022-11-08T11:00:19.822Z,3.40
2022-11-08T11:02:52.936Z,4.18
2022-11-08T11:05:37.884Z,4.35
2022-11-08T11:08:10.256Z,4.03
2022-11-08T11:10:41.592Z,4.05
2022-11-08T11:13:23.497Z,4.70
2022-11-08T11:16:03.241Z,4.72
2022-11-08T11:18:59.229Z,4.65
2022-11-08T11:21:25.696Z,3.92
2022-11-08T11:23:54.170Z,4.53
2022-11-08T11:26:29.559Z,4.13
2022-11-08T11:29:07.328Z,4.07
2022-11-08T11:31:35.248Z,4.22
2022-11-08T11:34:16.511Z,4.88
2022-11-08T11:36:44.657Z,4.28
2022-11-08T11:39:15.755Z,4.40
2022-11-08T11:42:31.074Z,4.55
2022-11-08T11:45:12.812Z,5.00
2022-11-08T11:47:50.306Z,4.30
2022-11-08T11:50:36.480Z,4.32
2022-11-08T11:53:05.836Z,4.55
2022-11-08T11:56:00.120Z,4.18
2022-11-08T11:58:44.531Z,4.90
2022-11-08T12:01:18.341Z,5.25
2022-11-08T12:04:12.518Z,4.43
2022-11-08T12:07:05.045Z,4.95
2022-11-08T12:10:04.287Z,4.78
2022-11-08T12:12:53.861Z,5.00
2022-11-08T12:15:28.692Z,4.85
2022-11-08T12:18:10.091Z,4.80
2022-11-08T12:21:06.997Z,4.70
2022-11-08T12:23:51.421Z,4.38
2022-11-08T12:26:27.131Z,4.68
2022-11-08T12:29:00.152Z,4.18
2022-11-08T12:31:30.434Z,4.30
2022-11-08T12:34:18.976Z,5.10
2022-11-08T12:37:04.246Z,4.53
2022-11-08T12:39:45.512Z,4.38
2022-11-08T12:42:34.987Z,4.13
2022-11-08T12:45:25.774Z,4.80
2022-11-08T12:47:57.629Z,4.18
2022-11-08T12:50:50.292Z,3.72
2022-11-08T12:53:44.354Z,3.72
2022-11-08T12:56:14.880Z,4.97
2022-11-08T12:58:46.454Z,4.10
2022-11-08T13:01:15.585Z,4.32
2022-11-08T13:03:50.660Z,3.60
2022-11-08T13:06:35.744Z,4.28
2022-11-08T13:09:20.319Z,3.95
2022-11-08T13:14:22.229Z,3.92
2022-11-08T13:17:15.486Z,4.10
2022-11-08T13:19:47.607Z,3.60
2022-11-08T13:22:29.005Z,3.55
2022-11-08T13:25:04.023Z,3.58
2022-11-08T13:27:32.845Z,3.35
2022-11-08T13:30:16.058Z,3.97
2022-11-08T13:33:12.117Z,3.30
2022-11-08T13:35:46.891Z,3.67
2022-11-08T13:38:42.126Z,3.45
2022-11-08T13:41:18.114Z,3.50
2022-11-08T13:43:45.021Z,4.13
2022-11-08T13:46:20.247Z,3.55
2022-11-08T13:49:00.895Z,3.63
2022-11-08T13:51:31.811Z,3.70
2022-11-08T13:53:58.108Z,3.25
2022-11-08T13:56:40.854Z,3.30
2022-11-08T13:59:32.291Z,3.47
2022-11-08T14:02:03.638Z,3.83
2022-11-08T14:04:30.072Z,3.15
2022-11-08T14:07:04.565Z,3.20
2022-11-08T14:09:47.604Z,2.67
2022-11-08T14:12:46.234Z,3.35
2022-11-08T14:15:19.569Z,3.05
2022-11-08T14:17:52.655Z,3.73
2022-11-08T14:20:31.491Z,2.92
2022-11-08T14:22:59.435Z,3.38
2022-11-08T14:25:35.422Z,3.47
2022-11-08T14:28:03.407Z,3.33
2022-11-08T14:30:29.803Z,3.47
2022-11-08T14:33:07.356Z,3.28
2022-11-08T14:35:33.870Z,3.15
2022-11-08T14:38:00.227Z,3.00
2022-11-08T14:40:28.143Z,3.17
2022-11-08T14:42:55.120Z,2.97
2022-11-08T14:45:25.857Z,3.83
2022-11-08T14:47:54.245Z,2.80
2022-11-08T14:50:23.056Z,2.92
2022-11-08T14:52:49.534Z,2.75
2022-11-08T14:55:23.523Z,2.78
2022-11-08T14:57:49.856Z,3.05
2022-11-08T15:00:22.364Z,2.75
2022-11-08T15:03:05.492Z,2.85
2022-11-08T15:05:44.725Z,3.22
2022-11-08T15:08:25.017Z,3.20
2022-11-08T15:10:56.825Z,2.85
2022-11-08T15:13:23.612Z,2.50
2022-11-08T15:15:56.911Z,2.53
2022-11-08T15:18:28.085Z,2.33
2022-11-08T15:21:08.158Z,2.67
2022-11-08T15:23:41.345Z,2.20
2022-11-08T15:26:25.605Z,2.60
2022-11-08T15:29:19.614Z,2.40
2022-11-08T15:31:56.997Z,2.50
2022-11-08T15:34:34.579Z,2.00
2022-11-08T15:37:00.975Z,2.65
2022-11-08T15:39:38.963Z,2.60
2022-11-08T15:42:14.113Z,3.22
2022-11-08T15:45:04.747Z,2.70
2022-11-08T15:47:43.243Z,2.45
2022-11-08T15:50:15.539Z,2.55
2022-11-08T15:52:42.545Z,2.63
2022-11-08T15:55:13.458Z,2.58
2022-11-08T15:57:41.921Z,2.45
2022-11-08T16:00:16.729Z,2.35
2022-11-08T16:02:43.873Z,2.80
2022-11-08T16:05:19.029Z,2.35
2022-11-08T16:07:46.216Z,2.42
2022-11-08T16:10:15.208Z,2.60
2022-11-08T16:12:43.211Z,2.65
2022-11-08T16:15:14.558Z,2.97
2022-11-08T16:17:43.996Z,2.92
2022-11-08T16:20:22.351Z,2.60
2022-11-08T16:22:48.708Z,2.50
2022-11-08T16:25:15.043Z,2.85
2022-11-08T16:27:41.388Z,12.07
2022-11-08T16:30:15.738Z,5.40
2022-11-08T16:32:42.740Z,4.00
2022-11-08T16:35:12.197Z,2.70
2022-11-08T16:37:39.048Z,3.17
2022-11-08T16:40:18.907Z,2.58
2022-11-08T16:42:46.394Z,2.45
2022-11-08T16:45:13.561Z,1.98
2022-11-08T16:47:45.909Z,2.50
2022-11-08T16:50:21.133Z,2.67
2022-11-08T16:52:47.474Z,3.25
2022-11-08T16:55:17.703Z,3.38
2022-11-08T16:57:44.922Z,3.50
2022-11-08T17:00:14.058Z,2.70
2022-11-08T17:02:44.888Z,2.90
2022-11-08T17:05:24.294Z,3.10
2022-11-08T17:07:51.466Z,3.42
2022-11-08T17:10:20.262Z,2.67
2022-11-08T17:12:47.494Z,2.70
2022-11-08T17:15:16.179Z,2.72
2022-11-08T17:17:43.125Z,2.58
2022-11-08T17:20:11.114Z,3.25
2022-11-08T17:22:38.077Z,3.35
2022-11-08T17:25:06.337Z,2.63
2022-11-08T17:27:33.167Z,3.03
2022-11-08T17:30:02.071Z,2.47
2022-11-08T17:32:28.832Z,2.58
2022-11-08T17:34:55.138Z,3.40
2022-11-08T17:37:21.493Z,2.83
2022-11-08T17:39:47.806Z,2.88
2022-11-08T17:42:14.149Z,2.90
2022-11-08T17:44:40.521Z,2.42
2022-11-08T17:47:06.847Z,2.42
2022-11-08T17:49:33.167Z,2.70
2022-11-08T17:51:59.569Z,2.75
2022-11-08T17:54:25.863Z,2.60
2022-11-08T17:56:52.196Z,2.60
2022-11-08T17:59:19.085Z,2.80
2022-11-08T18:01:45.442Z,3.00
2022-11-08T18:04:11.823Z,2.90
2022-11-08T18:06:40.927Z,3.10
2022-11-08T18:09:08.126Z,3.05
2022-11-08T18:11:34.732Z,2.90
2022-11-08T18:14:01.352Z,2.72
2022-11-08T18:16:29.573Z,3.05
2022-11-08T18:18:57.062Z,2.83
2022-11-08T18:21:25.054Z,3.08
2022-11-08T18:23:51.392Z,2.92
2022-11-08T18:26:18.392Z,3.80
2022-11-08T18:28:45.098Z,3.38
2022-11-08T18:31:16.350Z,2.42
2022-11-08T18:33:42.720Z,3.00
2022-11-08T18:36:17.978Z,3.50
2022-11-08T18:38:45.693Z,3.70
2022-11-08T18:41:14.973Z,3.08
2022-11-08T18:43:41.772Z,3.20
2022-11-08T18:46:14.426Z,3.20
2022-11-08T18:48:40.775Z,4.38
2022-11-08T18:51:11.286Z,3.35
2022-11-08T18:53:38.064Z,3.10
2022-11-08T18:56:04.718Z,2.65
2022-11-08T18:58:31.199Z,3.30
2022-11-08T19:00:58.252Z,3.10
2022-11-08T19:03:25.103Z,3.38
2022-11-08T19:05:51.433Z,3.50
2022-11-08T19:08:19.919Z,2.90
2022-11-08T19:11:08.990Z,2.90
2022-11-08T19:13:36.828Z,3.50
2022-11-08T19:16:14.412Z,3.53
2022-11-08T19:18:42.113Z,3.60
2022-11-08T19:21:12.995Z,4.13
2022-11-08T19:23:39.436Z,3.45
2022-11-08T19:26:16.613Z,2.97
2022-11-08T19:28:45.361Z,3.35
2022-11-08T19:31:18.367Z,3.00
2022-11-08T19:33:45.393Z,2.78
2022-11-08T19:36:14.032Z,3.25
2022-11-08T19:38:40.581Z,3.05
2022-11-08T19:41:12.277Z,3.17
2022-11-08T19:43:39.982Z,2.78
2022-11-08T19:46:08.845Z,3.05
2022-11-08T19:48:38.378Z,2.38
2022-11-08T19:51:09.035Z,2.63
2022-11-08T19:53:35.461Z,3.60
2022-11-08T19:56:03.222Z,3.38
2022-11-08T19:58:31.235Z,2.83
2022-11-08T20:00:57.548Z,2.45
2022-11-08T20:03:23.936Z,3.30
2022-11-08T20:05:51.836Z,3.78
2022-11-08T20:08:19.739Z,3.30
2022-11-08T20:10:46.837Z,4.10
2022-11-08T20:13:13.560Z,4.30
2022-11-08T20:15:40.075Z,4.22
2022-11-08T20:18:06.513Z,6.10
2022-11-08T20:20:32.963Z,8.02
2022-11-08T20:22:59.473Z,9.82
2022-11-08T20:25:26.046Z,8.98
2022-11-08T20:27:52.377Z,7.75
2022-11-08T20:30:18.884Z,7.97
2022-11-08T20:32:45.205Z,7.32
2022-11-08T20:35:11.527Z,7.45
2022-11-08T20:37:37.857Z,6.28
2022-11-08T20:40:04.495Z,6.97
2022-11-08T20:42:30.798Z,6.93
2022-11-08T20:44:57.144Z,8.68
2022-11-08T20:47:23.496Z,9.32
2022-11-08T20:49:49.814Z,7.18
2022-11-08T20:52:16.877Z,7.43
2022-11-08T20:54:44.206Z,6.55
2022-11-08T20:57:10.639Z,5.93
2022-11-08T20:59:37.001Z,6.03
2022-11-08T21:02:03.595Z,7.30
2022-11-08T21:04:29.955Z,7.20
2022-11-08T21:07:59.545Z,7.13
2022-11-08T21:09:50.255Z,7.82
2022-11-08T21:12:17.330Z,6.50
2022-11-08T21:14:43.666Z,6.90
2022-11-08T21:17:25.369Z,6.22
2022-11-08T21:19:51.782Z,5.68
2022-11-08T21:22:18.652Z,5.20
2022-11-08T21:24:47.765Z,6.00
2022-11-08T21:27:15.149Z,6.22
2022-11-08T21:29:41.541Z,5.40
2022-11-08T21:32:10.705Z,6.15
2022-11-08T21:34:37.032Z,6.18
2022-11-08T21:37:03.436Z,6.57
2022-11-08T21:39:29.787Z,6.22
2022-11-08T21:41:56.143Z,5.50
2022-11-08T21:44:22.471Z,5.50
2022-11-08T21:46:48.875Z,5.25
2022-11-08T21:49:15.253Z,4.78
2022-11-08T21:51:44.519Z,5.00
2022-11-08T21:54:10.891Z,4.97
2022-11-08T21:56:38.806Z,4.78
2022-11-08T21:59:05.287Z,4.50
2022-11-08T22:01:31.916Z,4.85
2022-11-08T22:03:59.256Z,5.43
2022-11-08T22:06:26.224Z,5.28
2022-11-08T22:08:52.676Z,5.32
2022-11-08T22:11:19.024Z,4.85
2022-11-08T22:13:45.359Z,5.93
2022-11-08T22:16:11.687Z,4.57
2022-11-08T22:21:41.104Z,4.72
2022-11-08T22:24:10.397Z,4.53
2022-11-08T22:26:37.106Z,4.38
2022-11-08T22:29:03.748Z,4.22
2022-11-08T22:31:31.074Z,4.25
2022-11-08T22:33:57.464Z,3.90
2022-11-08T22:36:23.849Z,3.95
2022-11-08T22:38:50.317Z,4.45
2022-11-08T22:41:18.290Z,4.03
2022-11-08T22:43:45.064Z,4.10
2022-11-08T22:46:12.121Z,4.90
2022-11-08T22:48:38.832Z,5.55
2022-11-08T22:51:05.427Z,5.53
2022-11-08T22:53:31.845Z,5.10
2022-11-08T22:56:00.973Z,4.82
2022-11-08T22:58:28.264Z,4.25
2022-11-08T23:00:54.675Z,4.97
2022-11-08T23:03:21.528Z,4.30
2022-11-08T23:05:49.775Z,4.30
2022-11-08T23:08:16.851Z,3.65
2022-11-08T23:11:01.510Z,4.30
2022-11-08T23:13:46.352Z,4.13
2022-11-08T23:16:12.681Z,4.65
2022-11-08T23:18:38.986Z,4.68
2022-11-08T23:21:23.981Z,3.33
2022-11-08T23:24:09.093Z,4.50
2022-11-08T23:26:53.909Z,3.92
2022-11-08T23:29:38.914Z,4.10
2022-11-08T23:32:05.377Z,4.78
2022-11-08T23:34:31.682Z,4.15
2022-11-08T23:36:58.002Z,4.20
2022-11-08T23:39:24.328Z,4.53
2022-11-08T23:42:09.042Z,4.25
2022-11-08T23:44:35.394Z,4.32
2022-11-08T23:47:01.735Z,3.70
2022-11-08T23:49:28.475Z,3.88
2022-11-08T23:51:54.920Z,5.15
2022-11-08T23:54:22.136Z,4.00
2022-11-08T23:56:48.739Z,4.75
2022-11-08T23:59:15.513Z,4.03
